Time;durP1;ratioP1;P1;durP2;ratioP2;P2;SDS_P1;SDS_P2;PMS_P1;PMS_P2;Temp;Humidity;BMP_temperature;BMP_pressure;BME280_temperature;BME280_humidity;BME280_pressure;Samples;Min_cycle;Max_cycle;Signal;HPM_P1;HPM_P2
2023/06/06 00:01:36;;;;;;;3.13;1.60;;;;;;;;;;5049350;28;20233;-84
2023/06/06 00:04:03;;;;;;;2.77;1.50;;;;;;;;;;5039743;28;20297;-83
2023/06/06 00:06:33;;;;;;;4.53;1.63;;;;;;;;;;5046102;28;20278;-84
2023/06/06 00:09:00;;;;;;;1.80;1.50;;;;;;;;;;5049026;28;20210;-84
2023/06/06 00:11:30;;;;;;;1.50;1.40;;;;;;;;;;5049347;28;20202;-84
2023/06/06 00:13:57;;;;;;;4.27;2.33;;;;;;;;;;5050039;28;20221;-84
2023/06/06 00:16:27;;;;;;;2.37;1.80;;;;;;;;;;5049007;28;20649;-84
2023/06/06 00:18:55;;;;;;;4.07;2.20;;;;;;;;;;5049252;28;20237;-84
2023/06/06 00:21:22;;;;;;;9.47;2.17;;;;;;;;;;5049593;28;20198;-84
2023/06/06 00:23:49;;;;;;;2.80;1.43;;;;;;;;;;5049365;28;20218;-84
2023/06/06 00:26:16;;;;;;;3.50;1.90;;;;;;;;;;5049587;28;20202;-84
2023/06/06 00:28:44;;;;;;;3.40;1.63;;;;;;;;;;5049737;28;20209;-84
2023/06/06 00:31:11;;;;;;;2.00;1.60;;;;;;;;;;5049557;28;20213;-85
2023/06/06 00:33:40;;;;;;;2.37;1.77;;;;;;;;;;5036703;28;20203;-84
2023/06/06 00:36:07;;;;;;;4.47;1.87;;;;;;;;;;5049172;28;20215;-84
2023/06/06 00:38:34;;;;;;;3.10;1.80;;;;;;;;;;5048854;28;20206;-84
2023/06/06 00:41:01;;;;;;;3.43;2.20;;;;;;;;;;5023403;28;20198;-85
2023/06/06 00:43:28;;;;;;;1.67;1.57;;;;;;;;;;5048689;28;20258;-85
2023/06/06 00:45:56;;;;;;;2.43;1.93;;;;;;;;;;5049071;28;20229;-85
2023/06/06 00:48:23;;;;;;;2.27;1.80;;;;;;;;;;5049130;28;20233;-85
2023/06/06 00:50:50;;;;;;;2.33;1.77;;;;;;;;;;5049256;28;20241;-84
2023/06/06 00:53:17;;;;;;;2.00;1.37;;;;;;;;;;5034231;28;20310;-84
2023/06/06 00:55:45;;;;;;;1.97;1.47;;;;;;;;;;5049333;28;20566;-84
2023/06/06 00:58:12;;;;;;;2.77;1.87;;;;;;;;;;5048688;28;20581;-84
2023/06/06 01:00:41;;;;;;;5.90;2.03;;;;;;;;;;5040075;28;20207;-85
2023/06/06 01:03:10;;;;;;;3.60;2.53;;;;;;;;;;5043995;28;20210;-84
2023/06/06 01:05:37;;;;;;;2.90;1.80;;;;;;;;;;5049203;28;20328;-84
2023/06/06 01:08:04;;;;;;;1.80;1.57;;;;;;;;;;5049103;28;20202;-85
2023/06/06 01:10:34;;;;;;;3.53;1.40;;;;;;;;;;5048282;28;20297;-84
2023/06/06 01:13:05;;;;;;;3.20;1.70;;;;;;;;;;5048581;28;20202;-84
2023/06/06 01:15:37;;;;;;;4.00;1.50;;;;;;;;;;5049065;28;20653;-84
2023/06/06 01:18:05;;;;;;;4.53;1.47;;;;;;;;;;5035213;28;20257;-85
2023/06/06 01:20:34;;;;;;;6.40;2.60;;;;;;;;;;5047804;28;20202;-85
2023/06/06 01:23:02;;;;;;;4.80;1.97;;;;;;;;;;5048066;28;20238;-84
2023/06/06 01:25:29;;;;;;;1.83;1.53;;;;;;;;;;5043093;28;20665;-84
2023/06/06 01:27:56;;;;;;;1.73;1.37;;;;;;;;;;5047101;28;20621;-85
2023/06/06 01:30:25;;;;;;;2.97;1.60;;;;;;;;;;5048483;28;20209;-84
2023/06/06 01:33:03;;;;;;;1.47;1.37;;;;;;;;;;5048378;28;20198;-84
2023/06/06 01:35:37;;;;;;;1.67;1.57;;;;;;;;;;5048581;28;20288;-85
2023/06/06 01:38:10;;;;;;;5.47;1.50;;;;;;;;;;5039127;28;20218;-84
2023/06/06 01:40:38;;;;;;;3.63;1.73;;;;;;;;;;5045010;28;20227;-85
2023/06/06 01:43:07;;;;;;;2.77;1.50;;;;;;;;;;5047605;28;20223;-84
2023/06/06 01:45:35;;;;;;;5.17;2.00;;;;;;;;;;5047095;28;20756;-84
2023/06/06 01:48:03;;;;;;;4.23;1.70;;;;;;;;;;5048073;28;20198;-85
2023/06/06 01:50:30;;;;;;;2.33;1.50;;;;;;;;;;5048525;28;20254;-85
2023/06/06 01:52:57;;;;;;;2.30;1.80;;;;;;;;;;5047478;28;20653;-85
2023/06/06 01:55:26;;;;;;;3.00;1.40;;;;;;;;;;5048250;28;20587;-85
2023/06/06 01:57:53;;;;;;;2.83;1.77;;;;;;;;;;5047959;28;20593;-84
2023/06/06 02:00:20;;;;;;;4.83;1.93;;;;;;;;;;5033444;28;20202;-85
2023/06/06 02:02:46;;;;;;;6.17;1.57;;;;;;;;;;5047329;28;20213;-85
2023/06/06 02:05:14;;;;;;;4.03;1.80;;;;;;;;;;5046943;28;20286;-85
2023/06/06 02:07:41;;;;;;;1.47;1.37;;;;;;;;;;5037335;28;20611;-82
2023/06/06 02:10:08;;;;;;;2.47;2.03;;;;;;;;;;5040902;28;20214;-86
2023/06/06 02:12:37;;;;;;;2.60;1.77;;;;;;;;;;5013454;28;20211;-85
2023/06/06 02:15:05;;;;;;;2.20;1.83;;;;;;;;;;5033409;28;20221;-86
2023/06/06 02:17:32;;;;;;;4.03;1.77;;;;;;;;;;5033724;28;20210;-86
2023/06/06 02:19:58;;;;;;;2.10;1.60;;;;;;;;;;5034347;28;20206;-85
2023/06/06 02:22:25;;;;;;;7.27;1.70;;;;;;;;;;5047614;28;20205;-86
2023/06/06 02:24:54;;;;;;;2.87;1.83;;;;;;;;;;5039166;27;20253;-82
2023/06/06 02:27:21;;;;;;;1.97;1.77;;;;;;;;;;5026995;28;20202;-85
2023/06/06 02:29:49;;;;;;;1.97;1.70;;;;;;;;;;5047437;28;20696;-85
2023/06/06 02:32:16;;;;;;;1.80;1.40;;;;;;;;;;5047286;28;20590;-85
2023/06/06 02:34:43;;;;;;;2.03;1.40;;;;;;;;;;5026834;28;20322;-86
2023/06/06 02:37:10;;;;;;;3.47;1.80;;;;;;;;;;5038374;28;20210;-85
2023/06/06 02:39:36;;;;;;;3.53;1.37;;;;;;;;;;5047651;28;20268;-86
2023/06/06 02:42:06;;;;;;;3.13;1.60;;;;;;;;;;5045488;28;20205;-85
2023/06/06 02:44:33;;;;;;;2.27;1.60;;;;;;;;;;5032386;27;20228;-85
2023/06/06 02:47:01;;;;;;;2.37;1.50;;;;;;;;;;5041735;27;20201;-85
2023/06/06 02:49:28;;;;;;;2.93;1.60;;;;;;;;;;5036370;28;20627;-86
2023/06/06 02:51:55;;;;;;;2.03;1.63;;;;;;;;;;5035717;28;20214;-86
2023/06/06 02:54:22;;;;;;;4.03;2.43;;;;;;;;;;5020986;28;20239;-86
2023/06/06 02:56:48;;;;;;;2.43;1.73;;;;;;;;;;5047307;28;20209;-86
2023/06/06 02:59:15;;;;;;;5.03;1.93;;;;;;;;;;5021484;28;20648;-86
2023/06/06 03:01:44;;;;;;;2.20;1.90;;;;;;;;;;5029867;28;20206;-85
2023/06/06 03:04:13;;;;;;;1.97;1.70;;;;;;;;;;5047331;28;20393;-85
2023/06/06 03:06:40;;;;;;;2.00;1.70;;;;;;;;;;5046212;28;20226;-87
2023/06/06 03:09:07;;;;;;;4.67;1.97;;;;;;;;;;5039773;28;20294;-86
2023/06/06 03:11:34;;;;;;;5.47;2.10;;;;;;;;;;5029013;28;20209;-87
2023/06/06 03:14:01;;;;;;;3.27;2.10;;;;;;;;;;5038151;28;20211;-88
2023/06/06 03:16:28;;;;;;;6.40;3.73;;;;;;;;;;5024030;28;20644;-86
2023/06/06 03:18:55;;;;;;;5.70;2.90;;;;;;;;;;5038820;28;20210;-85
2023/06/06 03:21:24;;;;;;;5.10;3.40;;;;;;;;;;5046531;28;20701;-85
2023/06/06 03:23:51;;;;;;;3.77;3.10;;;;;;;;;;5021769;28;20213;-86
2023/06/06 03:26:19;;;;;;;4.63;4.20;;;;;;;;;;5045979;28;20247;-86
2023/06/06 03:28:46;;;;;;;4.57;4.17;;;;;;;;;;5045681;28;20791;-86
2023/06/06 03:31:13;;;;;;;5.17;4.70;;;;;;;;;;5045831;28;20216;-85
2023/06/06 03:33:42;;;;;;;3.43;3.00;;;;;;;;;;5045385;28;20212;-86
2023/06/06 03:36:09;;;;;;;2.60;1.97;;;;;;;;;;5044391;28;20202;-87
2023/06/06 03:38:37;;;;;;;2.30;2.10;;;;;;;;;;5044798;28;20206;-86
2023/06/06 03:41:04;;;;;;;2.20;1.93;;;;;;;;;;5047207;28;20206;-87
2023/06/06 03:43:31;;;;;;;12.17;4.70;;;;;;;;;;5046899;28;20204;-87
2023/06/06 03:45:58;;;;;;;2.03;1.83;;;;;;;;;;5050425;28;20233;-87
2023/06/06 03:48:24;;;;;;;4.03;1.67;;;;;;;;;;5049275;28;20228;-87
2023/06/06 03:50:51;;;;;;;1.90;1.70;;;;;;;;;;5050666;28;20269;-87
2023/06/06 03:53:18;;;;;;;3.70;2.53;;;;;;;;;;5050213;28;20210;-87
2023/06/06 03:55:46;;;;;;;2.60;2.40;;;;;;;;;;5050882;28;20254;-87
2023/06/06 03:58:14;;;;;;;2.57;2.20;;;;;;;;;;5024121;28;20209;-86
2023/06/06 04:00:43;;;;;;;2.30;2.03;;;;;;;;;;5050179;28;20296;-86
2023/06/06 04:03:10;;;;;;;2.47;2.27;;;;;;;;;;5043810;28;20257;-86
2023/06/06 04:05:36;;;;;;;3.67;1.90;;;;;;;;;;5048954;28;20760;-85
2023/06/06 04:08:04;;;;;;;2.40;2.00;;;;;;;;;;5049066;27;20720;-85
2023/06/06 04:10:31;;;;;;;2.17;1.97;;;;;;;;;;5047800;28;20305;-85
2023/06/06 04:13:02;;;;;;;3.53;3.23;;;;;;;;;;5049615;28;20194;-85
2023/06/06 04:15:29;;;;;;;2.37;2.17;;;;;;;;;;5050234;28;20236;-81
2023/06/06 04:17:56;;;;;;;4.33;2.43;;;;;;;;;;5046356;28;20758;-91
2023/06/06 04:20:23;;;;;;;2.60;2.40;;;;;;;;;;5040391;28;20206;-87
2023/06/06 04:22:50;;;;;;;4.47;1.87;;;;;;;;;;5049970;28;20289;-87
2023/06/06 04:25:18;;;;;;;4.97;2.43;;;;;;;;;;5049873;28;20225;-86
2023/06/06 04:27:45;;;;;;;4.03;2.13;;;;;;;;;;5049254;28;20263;-87
2023/06/06 04:30:13;;;;;;;4.57;2.10;;;;;;;;;;5050241;28;20210;-88
2023/06/06 04:32:40;;;;;;;4.77;2.03;;;;;;;;;;5049577;28;20197;-86
2023/06/06 04:35:09;;;;;;;3.30;2.20;;;;;;;;;;5049094;28;20197;-86
2023/06/06 04:37:37;;;;;;;2.57;1.60;;;;;;;;;;5049214;28;20202;-86
2023/06/06 04:40:06;;;;;;;7.17;1.70;;;;;;;;;;5049920;28;20202;-87
2023/06/06 04:42:33;;;;;;;1.57;1.47;;;;;;;;;;5048636;28;20602;-86
2023/06/06 04:45:02;;;;;;;1.40;1.30;;;;;;;;;;5048994;28;20292;-85
2023/06/06 04:47:30;;;;;;;1.93;1.70;;;;;;;;;;5049163;28;20562;-85
2023/06/06 04:49:57;;;;;;;1.83;1.73;;;;;;;;;;5049191;28;20232;-85
2023/06/06 04:52:24;;;;;;;2.17;1.50;;;;;;;;;;5049103;28;20198;-85
2023/06/06 04:54:51;;;;;;;2.60;1.93;;;;;;;;;;5048946;28;20209;-86
2023/06/06 04:57:19;;;;;;;3.47;2.10;;;;;;;;;;5048078;28;20206;-86
2023/06/06 04:59:50;;;;;;;3.47;1.60;;;;;;;;;;5049202;28;20206;-86
2023/06/06 05:02:20;;;;;;;3.20;2.23;;;;;;;;;;5048594;28;20655;-86
2023/06/06 05:04:49;;;;;;;7.07;2.03;;;;;;;;;;5048961;28;20206;-86
2023/06/06 05:07:15;;;;;;;1.97;1.60;;;;;;;;;;5048844;28;20225;-86
2023/06/06 05:09:42;;;;;;;2.10;1.90;;;;;;;;;;5036029;28;20274;-86
2023/06/06 05:12:09;;;;;;;1.90;1.47;;;;;;;;;;5048528;28;20202;-85
2023/06/06 05:14:36;;;;;;;1.40;1.30;;;;;;;;;;5048776;28;20198;-85
2023/06/06 05:17:03;;;;;;;3.23;1.77;;;;;;;;;;5049036;28;20333;-85
2023/06/06 05:19:30;;;;;;;4.37;2.57;;;;;;;;;;5048393;28;20258;-84
2023/06/06 05:21:58;;;;;;;2.07;1.77;;;;;;;;;;5048564;28;20210;-85
2023/06/06 05:24:25;;;;;;;4.40;2.00;;;;;;;;;;5048187;28;20198;-85
2023/06/06 05:26:52;;;;;;;3.97;1.80;;;;;;;;;;5038430;28;20228;-85
2023/06/06 05:29:19;;;;;;;3.90;1.90;;;;;;;;;;5042340;28;20255;-86
2023/06/06 05:31:45;;;;;;;2.50;1.67;;;;;;;;;;5039154;28;20202;-85
2023/06/06 05:34:12;;;;;;;1.40;1.30;;;;;;;;;;5048103;28;20207;-85
2023/06/06 05:36:40;;;;;;;3.60;2.13;;;;;;;;;;5047946;28;20206;-85
2023/06/06 05:39:08;;;;;;;1.70;1.60;;;;;;;;;;5048502;28;20231;-85
2023/06/06 05:41:35;;;;;;;1.70;1.60;;;;;;;;;;5048199;28;20209;-85
2023/06/06 05:44:01;;;;;;;2.20;2.00;;;;;;;;;;5028043;28;20639;-84
2023/06/06 05:46:28;;;;;;;2.60;1.60;;;;;;;;;;5039171;28;20290;-84
2023/06/06 05:48:55;;;;;;;2.77;1.90;;;;;;;;;;5047849;28;20666;-85
2023/06/06 05:51:22;;;;;;;2.50;1.73;;;;;;;;;;5047992;28;20219;-86
2023/06/06 05:53:48;;;;;;;5.40;1.60;;;;;;;;;;5048435;28;20586;-85
2023/06/06 05:56:17;;;;;;;5.67;1.93;;;;;;;;;;5048099;28;20262;-86
2023/06/06 05:58:46;;;;;;;1.80;1.70;;;;;;;;;;5048166;28;20288;-85
2023/06/06 06:01:14;;;;;;;2.60;2.40;;;;;;;;;;5048080;28;20688;-85
2023/06/06 06:03:41;;;;;;;3.67;2.20;;;;;;;;;;5047962;28;20196;-85
2023/06/06 06:06:08;;;;;;;3.53;2.40;;;;;;;;;;5047952;28;20643;-85
2023/06/06 06:08:35;;;;;;;17.77;15.67;;;;;;;;;;5034668;28;20265;-85
2023/06/06 06:11:02;;;;;;;7.27;4.90;;;;;;;;;;5048118;28;20217;-85
2023/06/06 06:13:30;;;;;;;40.03;30.57;;;;;;;;;;5047702;28;20213;-85
2023/06/06 06:15:57;;;;;;;4.90;4.50;;;;;;;;;;5034702;28;20213;-85
2023/06/06 06:18:24;;;;;;;5.17;4.43;;;;;;;;;;5048124;28;20574;-85
2023/06/06 06:20:51;;;;;;;2.77;2.00;;;;;;;;;;5047441;28;20205;-86
2023/06/06 06:23:18;;;;;;;5.10;4.60;;;;;;;;;;5047485;28;20202;-85
2023/06/06 06:25:45;;;;;;;5.07;2.77;;;;;;;;;;5047659;28;20202;-84
2023/06/06 06:28:21;;;;;;;7.30;4.40;;;;;;;;;;5047646;28;20236;-85
2023/06/06 06:30:49;;;;;;;2.90;1.80;;;;;;;;;;5034124;28;20206;-85
2023/06/06 06:33:16;;;;;;;4.63;2.07;;;;;;;;;;5047603;28;20265;-85
2023/06/06 06:35:43;;;;;;;16.57;13.93;;;;;;;;;;5047637;28;20205;-85
2023/06/06 06:38:10;;;;;;;14.43;11.60;;;;;;;;;;5047613;28;20711;-85
2023/06/06 06:40:37;;;;;;;10.63;6.90;;;;;;;;;;5047841;28;20214;-84
2023/06/06 06:43:04;;;;;;;24.50;16.77;;;;;;;;;;5038191;28;20210;-84
2023/06/06 06:45:31;;;;;;;65.43;52.30;;;;;;;;;;5043762;28;20255;-85
2023/06/06 06:48:01;;;;;;;41.80;31.07;;;;;;;;;;5047311;28;20248;-84
2023/06/06 06:50:27;;;;;;;77.90;56.80;;;;;;;;;;5047794;28;20232;-84
2023/06/06 06:52:55;;;;;;;64.10;45.37;;;;;;;;;;5047688;28;20212;-85
2023/06/06 06:55:23;;;;;;;33.13;25.47;;;;;;;;;;5046834;28;20676;-85
2023/06/06 06:57:51;;;;;;;32.10;22.37;;;;;;;;;;5047685;28;20205;-85
2023/06/06 07:00:22;;;;;;;23.80;17.87;;;;;;;;;;5034731;28;20198;-85
2023/06/06 07:02:49;;;;;;;16.63;12.07;;;;;;;;;;5047247;28;20202;-85
2023/06/06 07:05:18;;;;;;;8.43;7.00;;;;;;;;;;5040727;28;20205;-85
2023/06/06 07:07:46;;;;;;;98.83;69.03;;;;;;;;;;5040407;28;20249;-84
2023/06/06 07:10:14;;;;;;;8.30;7.27;;;;;;;;;;5021877;28;20209;-84
2023/06/06 07:12:40;;;;;;;51.00;36.30;;;;;;;;;;5034014;28;20234;-84
2023/06/06 07:15:09;;;;;;;10.97;9.43;;;;;;;;;;5048023;28;20202;-85
2023/06/06 07:17:36;;;;;;;3.40;3.10;;;;;;;;;;5046865;28;20237;-84
2023/06/06 07:20:05;;;;;;;6.07;5.10;;;;;;;;;;5042282;28;20294;-84
2023/06/06 07:22:36;;;;;;;2.43;2.17;;;;;;;;;;5045014;28;20210;-84
2023/06/06 07:25:03;;;;;;;2.93;2.47;;;;;;;;;;5051235;28;20206;-84
2023/06/06 07:27:33;;;;;;;10.73;5.37;;;;;;;;;;5049529;28;20229;-84
2023/06/06 07:30:01;;;;;;;7.53;4.97;;;;;;;;;;5051122;28;20201;-84
2023/06/06 07:32:28;;;;;;;6.37;4.93;;;;;;;;;;5049635;28;20215;-84
2023/06/06 07:34:55;;;;;;;3.30;2.20;;;;;;;;;;5050933;28;20210;-84
2023/06/06 07:37:22;;;;;;;2.00;1.60;;;;;;;;;;5050537;28;20579;-84
2023/06/06 07:39:50;;;;;;;3.77;2.87;;;;;;;;;;5050863;28;20208;-84
2023/06/06 07:42:17;;;;;;;2.03;1.80;;;;;;;;;;5050086;28;20198;-85
2023/06/06 07:44:44;;;;;;;6.70;4.17;;;;;;;;;;5050653;28;20755;-85
2023/06/06 07:47:10;;;;;;;2.70;2.10;;;;;;;;;;5036410;28;20279;-84
2023/06/06 07:49:37;;;;;;;3.47;3.03;;;;;;;;;;5050235;28;20768;-84
2023/06/06 07:52:05;;;;;;;5.33;3.77;;;;;;;;;;5050152;28;20210;-84
2023/06/06 07:54:34;;;;;;;11.57;7.07;;;;;;;;;;5050243;28;20205;-85
2023/06/06 07:57:05;;;;;;;4.30;3.90;;;;;;;;;;5049876;28;20213;-84
2023/06/06 07:59:32;;;;;;;7.33;5.60;;;;;;;;;;5049980;28;20672;-84
2023/06/06 08:02:00;;;;;;;22.47;14.63;;;;;;;;;;5049746;28;20206;-84
2023/06/06 08:04:27;;;;;;;10.80;8.27;;;;;;;;;;5049970;28;20262;-84
2023/06/06 08:06:54;;;;;;;3.07;2.70;;;;;;;;;;5049605;28;20230;-84
2023/06/06 08:09:21;;;;;;;9.63;8.67;;;;;;;;;;5049856;28;20202;-84
2023/06/06 08:11:48;;;;;;;1.83;1.73;;;;;;;;;;5049649;28;20229;-84
2023/06/06 08:14:16;;;;;;;4.30;3.93;;;;;;;;;;5049759;28;20210;-84
2023/06/06 08:16:42;;;;;;;4.10;2.90;;;;;;;;;;5049548;28;20641;-84
2023/06/06 08:19:09;;;;;;;3.83;3.43;;;;;;;;;;5049699;28;20246;-84
2023/06/06 08:21:36;;;;;;;7.60;2.97;;;;;;;;;;5049719;28;20225;-83
2023/06/06 08:24:03;;;;;;;3.90;3.33;;;;;;;;;;5049648;28;20210;-84
2023/06/06 08:26:30;;;;;;;2.73;2.53;;;;;;;;;;5049798;28;20221;-83
2023/06/06 08:28:57;;;;;;;3.03;2.60;;;;;;;;;;5049342;28;20212;-84
2023/06/06 08:31:29;;;;;;;4.87;3.00;;;;;;;;;;5049860;28;20210;-83
2023/06/06 08:33:56;;;;;;;2.43;1.90;;;;;;;;;;5049190;28;20198;-83
2023/06/06 08:36:23;;;;;;;4.23;2.50;;;;;;;;;;5049369;28;20705;-83
2023/06/06 08:38:51;;;;;;;4.00;2.90;;;;;;;;;;5049272;28;20202;-83
2023/06/06 08:41:18;;;;;;;3.13;2.70;;;;;;;;;;5049501;28;20220;-83
2023/06/06 08:43:47;;;;;;;4.77;3.53;;;;;;;;;;5049272;28;20210;-84
2023/06/06 08:46:15;;;;;;;2.97;2.70;;;;;;;;;;5039488;28;20206;-83
2023/06/06 08:48:43;;;;;;;3.17;2.80;;;;;;;;;;5045411;28;20234;-84
2023/06/06 08:51:12;;;;;;;6.33;4.83;;;;;;;;;;5049326;28;20764;-84
2023/06/06 08:53:42;;;;;;;6.57;5.57;;;;;;;;;;5049505;28;20199;-83
2023/06/06 08:56:09;;;;;;;4.37;2.77;;;;;;;;;;5049380;28;20270;-84
2023/06/06 08:58:37;;;;;;;7.53;3.20;;;;;;;;;;5035684;28;20202;-83
2023/06/06 09:01:07;;;;;;;5.00;3.00;;;;;;;;;;5049359;28;20201;-83
2023/06/06 09:03:35;;;;;;;4.53;2.90;;;;;;;;;;5048028;28;20198;-83
2023/06/06 09:06:05;;;;;;;4.10;2.67;;;;;;;;;;5048658;28;20201;-84
2023/06/06 09:08:32;;;;;;;3.23;2.53;;;;;;;;;;5022580;28;20268;-83
2023/06/06 09:10:59;;;;;;;2.67;2.47;;;;;;;;;;5049046;28;20210;-84
2023/06/06 09:13:26;;;;;;;3.50;3.20;;;;;;;;;;5049122;28;20198;-83
2023/06/06 09:15:54;;;;;;;4.13;2.50;;;;;;;;;;5048846;28;20201;-82
2023/06/06 09:18:21;;;;;;;2.50;2.30;;;;;;;;;;5048971;28;20262;-83
2023/06/06 09:20:51;;;;;;;2.67;2.47;;;;;;;;;;5048169;28;20289;-83
2023/06/06 09:23:19;;;;;;;4.23;3.10;;;;;;;;;;5049220;28;20202;-83
2023/06/06 09:25:47;;;;;;;2.83;2.30;;;;;;;;;;5048840;28;20206;-82
2023/06/06 09:28:15;;;;;;;3.20;2.70;;;;;;;;;;5047855;28;20289;-83
2023/06/06 09:30:42;;;;;;;4.73;3.77;;;;;;;;;;5048732;28;20198;-83
2023/06/06 09:33:08;;;;;;;3.30;3.00;;;;;;;;;;5048821;28;20255;-82
2023/06/06 09:35:36;;;;;;;6.17;3.63;;;;;;;;;;5048019;28;20198;-83
2023/06/06 09:38:08;;;;;;;6.13;3.63;;;;;;;;;;5048275;28;20600;-83
2023/06/06 09:40:44;;;;;;;3.60;3.30;;;;;;;;;;5048966;28;20301;-83
2023/06/06 09:43:11;;;;;;;5.53;3.50;;;;;;;;;;5047390;28;20209;-83
2023/06/06 09:45:48;;;;;;;5.47;3.30;;;;;;;;;;5048414;28;20210;-83
2023/06/06 09:48:21;;;;;;;3.93;3.60;;;;;;;;;;5048208;28;20233;-83
2023/06/06 09:50:47;;;;;;;3.87;2.90;;;;;;;;;;5022083;28;20289;-83
2023/06/06 09:53:17;;;;;;;4.60;2.93;;;;;;;;;;5047747;28;20205;-83
2023/06/06 09:55:46;;;;;;;3.10;2.83;;;;;;;;;;5048276;28;20198;-83
2023/06/06 09:58:16;;;;;;;10.30;8.80;;;;;;;;;;5047821;28;20233;-83
2023/06/06 10:00:45;;;;;;;17.53;12.20;;;;;;;;;;5048360;28;20202;-82
2023/06/06 10:03:18;;;;;;;33.50;22.80;;;;;;;;;;5034500;28;20294;-83
2023/06/06 10:05:44;;;;;;;21.63;16.13;;;;;;;;;;5047660;28;20202;-83
2023/06/06 10:08:11;;;;;;;34.23;23.67;;;;;;;;;;5035741;28;20227;-82
2023/06/06 10:10:46;;;;;;;59.93;39.93;;;;;;;;;;5027817;28;20206;-82
2023/06/06 10:13:15;;;;;;;29.70;18.77;;;;;;;;;;5027801;28;20275;-82
2023/06/06 10:15:41;;;;;;;12.23;10.00;;;;;;;;;;5028369;28;20206;-82
2023/06/06 10:18:09;;;;;;;40.50;30.67;;;;;;;;;;5027820;28;20741;-82
2023/06/06 10:20:36;;;;;;;21.30;16.27;;;;;;;;;;5028011;28;20234;-82
2023/06/06 10:23:05;;;;;;;29.57;23.17;;;;;;;;;;5027930;28;20209;-81
2023/06/06 10:25:32;;;;;;;9.83;5.77;;;;;;;;;;5027964;28;20207;-81
2023/06/06 10:28:07;;;;;;;17.43;14.37;;;;;;;;;;5027466;28;20238;-81
2023/06/06 10:30:42;;;;;;;3.80;3.30;;;;;;;;;;5027671;28;21133;-81
2023/06/06 10:33:17;;;;;;;7.50;4.67;;;;;;;;;;5027709;28;20225;-82
2023/06/06 10:35:44;;;;;;;14.20;10.67;;;;;;;;;;5028002;28;20651;-82
2023/06/06 10:38:11;;;;;;;4.77;4.33;;;;;;;;;;5027582;28;20203;-81
2023/06/06 10:40:42;;;;;;;7.80;3.20;;;;;;;;;;5027075;28;20203;-82
2023/06/06 10:43:09;;;;;;;6.63;3.13;;;;;;;;;;5027479;28;20212;-82
2023/06/06 10:45:44;;;;;;;5.00;3.73;;;;;;;;;;5027754;28;20210;-82
2023/06/06 10:48:10;;;;;;;5.17;3.30;;;;;;;;;;5027651;28;21242;-82
2023/06/06 10:50:38;;;;;;;5.03;3.60;;;;;;;;;;5027253;28;20636;-81
2023/06/06 10:53:06;;;;;;;3.33;3.03;;;;;;;;;;5028674;28;20641;-82
2023/06/06 10:55:46;;;;;;;3.93;3.63;;;;;;;;;;5030885;28;20203;-81
2023/06/06 10:58:20;;;;;;;3.87;3.40;;;;;;;;;;5030920;28;20267;-82
2023/06/06 11:00:50;;;;;;;4.23;3.47;;;;;;;;;;5031492;28;20199;-82
2023/06/06 11:03:20;;;;;;;4.20;3.53;;;;;;;;;;5030701;28;20230;-82
2023/06/06 11:06:05;;;;;;;4.93;3.90;;;;;;;;;;5031352;28;20259;-83
2023/06/06 11:08:35;;;;;;;12.13;8.20;;;;;;;;;;5030920;28;20214;-82
2023/06/06 11:11:46;;;;;;;6.33;5.37;;;;;;;;;;5031357;28;20206;-82
2023/06/06 11:14:12;;;;;;;3.90;3.60;;;;;;;;;;5029898;28;20630;-82
2023/06/06 11:17:02;;;;;;;4.20;3.30;;;;;;;;;;5030300;28;20734;-82
2023/06/06 11:19:37;;;;;;;8.03;5.53;;;;;;;;;;5031088;28;20210;-82
2023/06/06 11:22:04;;;;;;;7.93;4.70;;;;;;;;;;5030848;28;20244;-82
2023/06/06 11:24:36;;;;;;;5.33;3.83;;;;;;;;;;5030373;28;20755;-82
2023/06/06 11:27:06;;;;;;;11.07;4.27;;;;;;;;;;5030577;28;20213;-81
2023/06/06 11:29:34;;;;;;;3.23;2.90;;;;;;;;;;5031013;28;20194;-81
2023/06/06 11:32:03;;;;;;;3.57;2.70;;;;;;;;;;5031176;28;20198;-82
2023/06/06 11:34:32;;;;;;;4.87;2.83;;;;;;;;;;5030870;28;20221;-82
2023/06/06 11:36:59;;;;;;;2.30;2.10;;;;;;;;;;5030146;28;20203;-82
2023/06/06 11:39:30;;;;;;;3.20;2.90;;;;;;;;;;5017489;28;20255;-82
2023/06/06 11:41:57;;;;;;;4.63;2.93;;;;;;;;;;5030507;28;20206;-81
2023/06/06 11:44:32;;;;;;;3.43;2.63;;;;;;;;;;5030569;28;20290;-81
2023/06/06 11:46:59;;;;;;;6.13;2.93;;;;;;;;;;5029815;28;20260;-81
2023/06/06 11:49:27;;;;;;;2.80;2.50;;;;;;;;;;5030202;28;20236;-81
2023/06/06 11:51:57;;;;;;;3.83;2.30;;;;;;;;;;5029740;28;20214;-81
2023/06/06 11:54:24;;;;;;;3.07;2.77;;;;;;;;;;5030630;28;20241;-81
2023/06/06 11:56:52;;;;;;;4.27;2.67;;;;;;;;;;5029592;28;20210;-81
2023/06/06 11:59:20;;;;;;;3.80;2.30;;;;;;;;;;5030204;28;20205;-82
2023/06/06 12:01:49;;;;;;;4.63;2.63;;;;;;;;;;5029864;28;20279;-81
2023/06/06 12:04:17;;;;;;;3.27;3.03;;;;;;;;;;5029900;28;20682;-81
2023/06/06 12:06:48;;;;;;;4.07;2.60;;;;;;;;;;5030195;28;20233;-81
2023/06/06 12:09:16;;;;;;;4.60;2.20;;;;;;;;;;5030300;28;20708;-81
2023/06/06 12:11:54;;;;;;;3.30;2.50;;;;;;;;;;5030060;28;20682;-81
2023/06/06 12:14:22;;;;;;;2.57;2.37;;;;;;;;;;5029544;28;20773;-82
2023/06/06 12:16:50;;;;;;;4.70;3.73;;;;;;;;;;5029943;28;20213;-81
2023/06/06 12:19:18;;;;;;;3.87;3.13;;;;;;;;;;5030651;28;20207;-81
2023/06/06 12:21:46;;;;;;;3.63;3.10;;;;;;;;;;5030108;28;20195;-81
2023/06/06 12:24:19;;;;;;;5.13;3.83;;;;;;;;;;5029452;28;20198;-81
2023/06/06 12:26:51;;;;;;;8.17;3.40;;;;;;;;;;5029391;28;20199;-81
2023/06/06 12:29:22;;;;;;;4.33;3.30;;;;;;;;;;5029359;28;20222;-81
2023/06/06 12:31:50;;;;;;;3.27;2.97;;;;;;;;;;5030011;28;20214;-81
2023/06/06 12:34:18;;;;;;;3.50;3.00;;;;;;;;;;5029869;28;20210;-81
2023/06/06 12:36:44;;;;;;;2.70;2.50;;;;;;;;;;5029620;28;20263;-81
2023/06/06 12:39:13;;;;;;;4.20;2.30;;;;;;;;;;5029574;28;20661;-81
2023/06/06 12:41:42;;;;;;;3.23;2.50;;;;;;;;;;5029257;28;20676;-81
2023/06/06 12:44:11;;;;;;;3.10;2.80;;;;;;;;;;5029417;28;20600;-81
2023/06/06 12:46:38;;;;;;;2.97;2.33;;;;;;;;;;5029605;28;20207;-81
2023/06/06 12:49:05;;;;;;;3.43;2.33;;;;;;;;;;5029871;28;20242;-80
2023/06/06 12:51:33;;;;;;;3.20;2.67;;;;;;;;;;5029337;28;20252;-81
2023/06/06 12:54:00;;;;;;;3.10;2.83;;;;;;;;;;5029255;28;20213;-81
2023/06/06 12:56:28;;;;;;;4.30;2.47;;;;;;;;;;5029122;28;20209;-81
2023/06/06 12:58:57;;;;;;;4.57;2.87;;;;;;;;;;5029359;28;20737;-81
2023/06/06 13:01:23;;;;;;;3.10;2.53;;;;;;;;;;5029737;28;20252;-82
2023/06/06 13:03:50;;;;;;;3.00;2.70;;;;;;;;;;5029149;28;20742;-81
2023/06/06 13:06:17;;;;;;;2.73;2.53;;;;;;;;;;5028889;28;20210;-81
2023/06/06 13:08:43;;;;;;;3.03;2.73;;;;;;;;;;5029330;28;20223;-81
2023/06/06 13:11:10;;;;;;;4.47;2.67;;;;;;;;;;5028700;28;20276;-81
2023/06/06 13:13:38;;;;;;;4.07;2.80;;;;;;;;;;5028856;28;20203;-81
2023/06/06 13:16:06;;;;;;;2.93;2.27;;;;;;;;;;5028807;28;20213;-81
2023/06/06 13:18:35;;;;;;;3.90;2.20;;;;;;;;;;5028510;28;20289;-81
2023/06/06 13:21:03;;;;;;;3.47;2.90;;;;;;;;;;5028766;28;20289;-80
2023/06/06 13:23:30;;;;;;;4.43;2.40;;;;;;;;;;5028933;28;20202;-81
2023/06/06 13:25:57;;;;;;;2.37;2.17;;;;;;;;;;5028928;28;20207;-81
2023/06/06 13:28:24;;;;;;;3.17;2.50;;;;;;;;;;5028772;28;20313;-82
2023/06/06 13:30:51;;;;;;;2.67;2.47;;;;;;;;;;5028873;28;20259;-82
2023/06/06 13:33:20;;;;;;;2.80;2.60;;;;;;;;;;5028639;28;20207;-81
2023/06/06 13:35:47;;;;;;;2.77;2.20;;;;;;;;;;5028793;28;20234;-83
2023/06/06 13:38:18;;;;;;;5.40;3.00;;;;;;;;;;5028922;28;20559;-81
2023/06/06 13:40:45;;;;;;;3.70;2.47;;;;;;;;;;5028347;28;20568;-81
2023/06/06 13:43:12;;;;;;;2.90;2.60;;;;;;;;;;5028473;28;20210;-81
2023/06/06 13:45:38;;;;;;;4.60;3.53;;;;;;;;;;5029093;28;20203;-81
2023/06/06 13:48:12;;;;;;;3.93;2.90;;;;;;;;;;5090860;27;1371122;-82
2023/06/06 13:50:42;;;;;;;3.40;3.10;;;;;;;;;;5121736;28;20608;-82
2023/06/06 13:53:09;;;;;;;4.33;2.33;;;;;;;;;;5108535;28;20682;-82
2023/06/06 13:55:35;;;;;;;2.70;2.50;;;;;;;;;;5122472;28;20195;-82
2023/06/06 13:58:05;;;;;;;4.07;3.07;;;;;;;;;;5121522;28;20222;-82
2023/06/06 14:00:32;;;;;;;3.20;2.70;;;;;;;;;;5121932;28;20200;-82
2023/06/06 14:03:01;;;;;;;5.53;2.80;;;;;;;;;;5108939;28;20564;-82
2023/06/06 14:05:29;;;;;;;3.23;2.93;;;;;;;;;;5129069;28;20222;-82
2023/06/06 14:07:56;;;;;;;4.80;2.60;;;;;;;;;;5114874;28;20203;-82
2023/06/06 14:10:23;;;;;;;2.83;2.63;;;;;;;;;;5121207;28;20200;-82
2023/06/06 14:12:49;;;;;;;5.53;3.30;;;;;;;;;;5123281;28;20194;-81
2023/06/06 14:15:17;;;;;;;4.03;2.90;;;;;;;;;;5120556;28;20196;-82
2023/06/06 14:17:44;;;;;;;3.50;2.80;;;;;;;;;;5121889;28;20232;-82
2023/06/06 14:20:13;;;;;;;3.53;2.67;;;;;;;;;;5116620;28;20662;-82
2023/06/06 14:22:44;;;;;;;4.33;3.03;;;;;;;;;;5115128;28;20203;-82
2023/06/06 14:25:11;;;;;;;3.53;2.70;;;;;;;;;;5118886;28;20199;-82
2023/06/06 14:27:40;;;;;;;3.60;3.07;;;;;;;;;;5123749;28;21641;-82
2023/06/06 14:30:08;;;;;;;4.47;3.10;;;;;;;;;;5123200;28;20205;-82
2023/06/06 14:32:35;;;;;;;3.20;2.90;;;;;;;;;;5128262;28;20215;-82
2023/06/06 14:35:05;;;;;;;3.33;2.70;;;;;;;;;;5114254;28;20195;-82
2023/06/06 14:37:32;;;;;;;4.30;2.70;;;;;;;;;;5128076;28;20313;-82
2023/06/06 14:40:00;;;;;;;3.03;2.43;;;;;;;;;;5122183;28;20199;-82
2023/06/06 14:42:27;;;;;;;5.30;3.23;;;;;;;;;;5121246;28;20199;-82
2023/06/06 14:44:54;;;;;;;2.40;2.20;;;;;;;;;;5121503;28;20621;-82
2023/06/06 14:47:21;;;;;;;3.43;2.50;;;;;;;;;;5121446;28;20777;-82